createdAt,value
2022-12-18T00:02:35.223Z,80.69
2022-12-18T00:07:57.131Z,80.27
2022-12-18T00:13:18.908Z,79.98
2022-12-18T00:18:41.831Z,79.61
2022-12-18T00:24:03.928Z,79.98
2022-12-18T00:29:25.683Z,80.37
2022-12-18T00:34:47.411Z,80.98
2022-12-18T00:40:10.052Z,79.88
2022-12-18T00:45:32.413Z,79.17
2022-12-18T00:50:54.269Z,78.48
2022-12-18T00:56:16.040Z,79.43
2022-12-18T01:01:37.938Z,80.38
2022-12-18T01:06:59.795Z,80.64
2022-12-18T01:12:21.604Z,80.86
2022-12-18T01:17:44.197Z,80.27
2022-12-18T01:23:05.962Z,80.26
2022-12-18T01:28:27.669Z,81.09
2022-12-18T01:33:50.624Z,81.00
2022-12-18T01:39:14.428Z,78.82
2022-12-18T01:44:56.741Z,78.99
2022-12-18T01:50:25.966Z,78.84
2022-12-18T01:55:51.231Z,79.00
2022-12-18T02:01:13.210Z,78.59
2022-12-18T02:06:42.099Z,77.88
2022-12-18T02:12:17.397Z,79.54
2022-12-18T02:17:51.021Z,79.19
2022-12-18T02:23:31.024Z,79.09
2022-12-18T02:29:01.702Z,78.43
2022-12-18T02:34:29.091Z,78.87
2022-12-18T02:39:54.047Z,78.74
2022-12-18T02:45:15.919Z,77.84
2022-12-18T02:50:46.445Z,78.62
2022-12-18T02:56:19.727Z,78.25
2022-12-18T03:01:50.695Z,80.06
2022-12-18T03:07:21.873Z,79.14
2022-12-18T03:12:48.730Z,78.94
2022-12-18T03:18:17.811Z,78.32
2022-12-18T03:23:48.349Z,78.43
2022-12-18T03:29:17.566Z,78.69
2022-12-18T03:34:43.104Z,77.52
2022-12-18T03:40:06.186Z,79.17
2022-12-18T03:45:35.516Z,79.73
2022-12-18T03:51:00.566Z,79.12
2022-12-18T03:56:24.836Z,77.49
2022-12-18T04:01:50.105Z,76.96
2022-12-18T04:07:13.607Z,76.70
2022-12-18T04:12:35.359Z,76.68
2022-12-18T04:17:57.115Z,75.93
2022-12-18T04:23:19.206Z,76.65
2022-12-18T04:28:40.941Z,76.20
2022-12-18T04:34:03.040Z,76.68
2022-12-18T04:39:25.450Z,76.42
2022-12-18T04:44:47.806Z,76.14
2022-12-18T04:50:09.581Z,75.27
2022-12-18T04:55:31.322Z,74.87
2022-12-18T05:00:53.018Z,73.65
2022-12-18T05:06:15.225Z,73.33
2022-12-18T05:11:37.041Z,73.60
2022-12-18T05:17:01.078Z,74.59
2022-12-18T05:22:23.064Z,74.82
2022-12-18T05:27:45.839Z,74.85
2022-12-18T05:33:07.567Z,73.92
2022-12-18T05:38:30.648Z,75.08
2022-12-18T05:43:52.374Z,75.61
2022-12-18T05:49:14.069Z,75.99
2022-12-18T05:54:35.922Z,76.06
2022-12-18T05:59:57.607Z,76.87
2022-12-18T06:05:19.483Z,77.27
2022-12-18T06:10:42.631Z,76.42
2022-12-18T06:16:08.136Z,75.55
2022-12-18T06:21:30.910Z,76.41
2022-12-18T06:26:53.669Z,76.58
2022-12-18T06:32:15.377Z,76.27
2022-12-18T06:37:37.063Z,76.94
2022-12-18T06:42:58.810Z,76.01
2022-12-18T06:48:20.874Z,75.90
2022-12-18T06:53:42.981Z,74.99
2022-12-18T06:59:05.016Z,75.67
2022-12-18T07:04:31.271Z,75.58
2022-12-18T07:09:52.963Z,76.21
2022-12-18T07:15:14.777Z,76.13
2022-12-18T07:20:37.107Z,75.09
2022-12-18T07:26:11.469Z,74.60
2022-12-18T07:31:34.466Z,74.62
2022-12-18T07:36:56.271Z,74.30
2022-12-18T07:42:32.851Z,75.36
2022-12-18T07:47:54.551Z,75.93
2022-12-18T07:53:16.258Z,74.49
2022-12-18T07:58:38.672Z,73.69
2022-12-18T08:04:00.399Z,75.00
2022-12-18T08:09:22.126Z,74.12
2022-12-18T08:14:43.840Z,74.30
2022-12-18T08:20:05.890Z,73.85
2022-12-18T08:25:28.770Z,74.20
2022-12-18T08:30:53.365Z,74.66
2022-12-18T08:36:15.087Z,74.71
2022-12-18T08:41:36.776Z,73.77
2022-12-18T08:46:58.556Z,72.93
2022-12-18T08:52:20.284Z,73.19
2022-12-18T08:57:42.003Z,73.19
2022-12-18T09:03:03.898Z,73.63
2022-12-18T09:08:25.925Z,74.40
2022-12-18T09:13:47.847Z,74.62
2022-12-18T09:19:10.690Z,73.22
2022-12-18T09:24:32.413Z,74.80
2022-12-18T09:29:54.107Z,75.72
2022-12-18T09:35:15.910Z,74.34
2022-12-18T09:40:43.749Z,73.83
2022-12-18T09:46:12.994Z,73.78
2022-12-18T09:51:45.563Z,73.30
2022-12-18T09:57:07.290Z,73.70
2022-12-18T10:02:32.038Z,74.34
2022-12-18T10:08:06.675Z,74.79
2022-12-18T10:13:47.710Z,74.06
2022-12-18T10:19:25.647Z,74.10
2022-12-18T10:25:05.616Z,73.98
2022-12-18T10:30:28.695Z,74.18
2022-12-18T10:35:53.731Z,73.60
2022-12-18T10:41:18.224Z,72.70
2022-12-18T10:46:40.123Z,73.14
2022-12-18T10:52:22.342Z,73.28
2022-12-18T10:57:44.311Z,73.52
2022-12-18T11:03:37.073Z,73.98
2022-12-18T11:09:19.683Z,73.36
2022-12-18T11:14:48.872Z,74.07
2022-12-18T11:20:33.807Z,74.30
2022-12-18T11:26:02.606Z,74.47
2022-12-18T11:31:28.731Z,74.62
2022-12-18T11:36:50.904Z,74.61
2022-12-18T11:42:45.594Z,74.57
2022-12-18T11:48:23.672Z,74.03
2022-12-18T11:53:45.389Z,74.18
2022-12-18T11:59:17.553Z,74.25
2022-12-18T12:05:05.164Z,73.69
2022-12-18T12:10:52.524Z,74.54
2022-12-18T12:16:22.567Z,74.49
2022-12-18T12:21:54.574Z,74.10
2022-12-18T12:27:31.863Z,72.80
2022-12-18T12:33:25.966Z,72.30
2022-12-18T12:38:52.858Z,74.42
2022-12-18T12:44:21.357Z,73.39
2022-12-18T12:49:48.403Z,72.60
2022-12-18T12:55:22.389Z,72.48
2022-12-18T13:00:54.320Z,72.42
2022-12-18T13:06:33.905Z,72.34
2022-12-18T13:12:22.510Z,72.34
2022-12-18T13:17:44.308Z,71.87
2022-12-18T13:23:24.320Z,71.77
2022-12-18T13:28:49.169Z,72.22
2022-12-18T13:40:00.083Z,72.91
2022-12-18T13:45:41.025Z,72.74
2022-12-18T13:51:17.595Z,72.53
2022-12-18T13:56:44.903Z,72.62
2022-12-18T14:02:15.434Z,72.73
2022-12-18T14:07:43.872Z,73.27
2022-12-18T14:13:14.962Z,73.56
2022-12-18T14:19:08.664Z,74.04
2022-12-18T14:24:37.167Z,73.41
2022-12-18T14:29:59.152Z,73.26
2022-12-18T14:35:21.002Z,74.18
2022-12-18T14:40:43.887Z,74.33
2022-12-18T14:46:20.543Z,75.28
2022-12-18T14:51:49.543Z,76.06
2022-12-18T14:57:25.853Z,75.78
2022-12-18T15:02:56.711Z,76.31
2022-12-18T15:08:41.037Z,77.02
2022-12-18T15:14:30.904Z,76.82
2022-12-18T15:20:01.316Z,76.36
2022-12-18T15:25:34.704Z,76.45
2022-12-18T15:31:25.752Z,76.79
2022-12-18T15:36:47.859Z,76.46
2022-12-18T15:42:29.834Z,77.56
2022-12-18T15:47:51.602Z,78.14
2022-12-18T15:53:13.375Z,77.72
2022-12-18T15:58:35.186Z,78.14
2022-12-18T16:03:57.464Z,78.55
2022-12-18T16:09:24.488Z,77.53
2022-12-18T16:14:48.340Z,76.32
2022-12-18T16:20:15.890Z,76.85
2022-12-18T16:25:37.815Z,76.84
2022-12-18T16:31:00.169Z,77.08
2022-12-18T16:36:21.875Z,77.28
2022-12-18T16:41:44.029Z,77.52
2022-12-18T16:47:05.883Z,77.76
2022-12-18T16:52:30.313Z,77.92
2022-12-18T16:57:52.012Z,77.04
2022-12-18T17:03:14.030Z,77.84
2022-12-18T17:08:36.013Z,78.04
2022-12-18T17:13:58.160Z,79.37
2022-12-18T17:19:21.722Z,78.30
2022-12-18T17:24:43.521Z,78.13
2022-12-18T17:30:05.880Z,77.91
2022-12-18T17:35:27.629Z,78.42
2022-12-18T17:40:49.347Z,78.64
2022-12-18T17:46:14.953Z,78.20
2022-12-18T17:51:36.780Z,78.18
2022-12-18T17:56:58.474Z,76.74
2022-12-18T18:02:20.373Z,75.89
2022-12-18T18:07:43.078Z,75.62
2022-12-18T18:13:24.563Z,75.60
2022-12-18T18:18:46.245Z,75.61
2022-12-18T18:24:09.433Z,75.71
2022-12-18T18:29:31.243Z,75.83
2022-12-18T18:34:53.034Z,75.73
2022-12-18T18:40:15.115Z,74.80
2022-12-18T18:45:36.934Z,75.79
2022-12-18T18:50:59.386Z,75.76
2022-12-18T19:02:05.335Z,73.53
2022-12-18T19:07:30.251Z,74.13
2022-12-18T19:13:11.369Z,75.03
2022-12-18T19:18:33.890Z,74.65
2022-12-18T19:23:55.684Z,75.34
2022-12-18T19:29:17.865Z,75.45
2022-12-18T19:34:39.698Z,74.83
2022-12-18T19:40:02.491Z,76.26
2022-12-18T19:45:30.918Z,75.61
2022-12-18T19:50:52.801Z,75.30
2022-12-18T19:56:17.870Z,75.27
2022-12-18T20:01:40.426Z,75.13
2022-12-18T20:07:02.470Z,75.12
2022-12-18T20:12:24.394Z,74.98
2022-12-18T20:17:46.235Z,74.80
2022-12-18T20:23:08.280Z,74.65
2022-12-18T20:28:30.346Z,73.76
2022-12-18T20:33:54.510Z,73.66
2022-12-18T20:39:19.428Z,73.50
2022-12-18T20:44:42.025Z,74.56
2022-12-18T20:50:04.154Z,74.72
2022-12-18T20:55:26.069Z,75.33
2022-12-18T21:00:47.820Z,76.09
2022-12-18T21:06:10.601Z,76.05
2022-12-18T21:11:51.906Z,75.95
2022-12-18T21:17:14.123Z,76.27
2022-12-18T21:22:36.580Z,77.60
2022-12-18T21:27:58.307Z,77.70
2022-12-18T21:33:20.047Z,77.77
2022-12-18T21:38:42.100Z,77.35
2022-12-18T21:44:07.037Z,76.83
2022-12-18T21:49:29.012Z,76.89
2022-12-18T21:54:50.729Z,76.51
2022-12-18T22:00:19.344Z,76.43
2022-12-18T22:05:41.460Z,76.34
2022-12-18T22:11:03.382Z,76.09
2022-12-18T22:16:25.200Z,76.48
2022-12-18T22:21:48.716Z,76.78
2022-12-18T22:27:10.507Z,76.42
2022-12-18T22:32:34.895Z,76.84
2022-12-18T22:37:59.110Z,77.40
2022-12-18T22:43:20.859Z,76.68
2022-12-18T22:48:43.233Z,77.15
2022-12-18T22:54:04.995Z,76.71
2022-12-18T22:59:26.873Z,76.97
2022-12-18T23:04:48.612Z,76.99
2022-12-18T23:10:10.401Z,77.56
2022-12-18T23:15:32.456Z,77.59
2022-12-18T23:20:54.125Z,77.76
2022-12-18T23:26:18.928Z,77.95
2022-12-18T23:31:40.794Z,78.21
2022-12-18T23:37:03.653Z,77.22
2022-12-18T23:42:25.548Z,77.43
2022-12-18T23:47:51.050Z,77.86
2022-12-18T23:53:13.589Z,78.05
2022-12-18T23:58:36.233Z,78.44
